Time;durP1;ratioP1;P1;durP2;ratioP2;P2;SDS_P1;SDS_P2;PMS_P1;PMS_P2;Temp;Humidity;BMP_temperature;BMP_pressure;BME280_temperature;BME280_humidity;BME280_pressure;Samples;Min_cycle;Max_cycle;Signal;HPM_P1;HPM_P2
2022/05/03 00:00:03;;;;;;;17.40;15.80;;;14.50;99.90;;;;;;6097658;23;20403;-85
2022/05/03 00:02:40;;;;;;;17.47;15.97;;;14.50;99.90;;;;;;6097146;23;20385;-85
2022/05/03 00:05:11;;;;;;;17.87;16.07;;;14.50;99.90;;;;;;6115661;23;20427;-85
2022/05/03 00:07:44;;;;;;;16.30;14.70;;;14.50;99.90;;;;;;6116971;23;20403;-84
2022/05/03 00:10:15;;;;;;;17.33;15.40;;;14.50;99.90;;;;;;6099907;23;20425;-85
2022/05/03 00:12:43;;;;;;;18.07;15.27;;;14.50;99.90;;;;;;6096999;23;20939;-85
2022/05/03 00:15:15;;;;;;;17.30;15.70;;;14.50;99.90;;;;;;6096840;23;20405;-85
2022/05/03 00:17:43;;;;;;;16.00;14.70;;;14.40;99.90;;;;;;6097126;23;20404;-85
2022/05/03 00:20:11;;;;;;;18.40;16.80;;;14.40;99.90;;;;;;6096821;23;20428;-85
2022/05/03 00:22:38;;;;;;;17.10;15.50;;;14.30;99.90;;;;;;6096901;23;20419;-85
2022/05/03 00:25:06;;;;;;;18.33;16.77;;;14.40;99.90;;;;;;6097892;23;20419;-85
2022/05/03 00:27:34;;;;;;;18.03;16.43;;;14.40;99.90;;;;;;6102312;23;20927;-85
2022/05/03 00:30:00;;;;;;;17.47;15.97;;;14.30;99.90;;;;;;6097493;23;20785;-85
2022/05/03 00:32:29;;;;;;;18.17;16.53;;;14.30;99.90;;;;;;6097277;23;20504;-85
2022/05/03 00:34:59;;;;;;;16.77;15.27;;;14.30;99.90;;;;;;6098788;23;20777;-85
2022/05/03 00:37:25;;;;;;;16.67;15.10;;;14.20;99.90;;;;;;6102022;23;20412;-85
2022/05/03 00:39:52;;;;;;;16.53;15.13;;;14.10;99.90;;;;;;6096311;23;20410;-85
2022/05/03 00:42:21;;;;;;;19.10;16.43;;;14.10;99.90;;;;;;6096960;23;20442;-85
2022/05/03 00:44:59;;;;;;;17.37;15.67;;;14.00;99.90;;;;;;6119310;23;20398;-85
2022/05/03 00:47:40;;;;;;;16.70;15.30;;;14.00;99.90;;;;;;6112850;23;20389;-84
2022/05/03 00:50:08;;;;;;;19.10;17.30;;;14.00;99.90;;;;;;6096506;23;20446;-85
2022/05/03 00:52:41;;;;;;;18.17;16.37;;;13.90;99.90;;;;;;6096753;23;20441;-85
2022/05/03 00:55:23;;;;;;;16.87;15.20;;;13.90;99.90;;;;;;6096833;23;20403;-85
2022/05/03 00:58:01;;;;;;;17.93;16.33;;;13.80;99.90;;;;;;6094382;23;20392;-85
2022/05/03 01:00:30;;;;;;;17.10;15.70;;;13.80;99.90;;;;;;6096665;23;20509;-85
2022/05/03 01:03:11;;;;;;;17.03;15.60;;;13.70;99.90;;;;;;6117524;23;20427;-85
2022/05/03 01:05:46;;;;;;;18.20;16.57;;;13.70;99.90;;;;;;6116775;23;20443;-85
2022/05/03 01:08:23;;;;;;;16.30;15.00;;;13.70;99.90;;;;;;6098105;23;20397;-85
2022/05/03 01:11:01;;;;;;;17.47;15.87;;;13.70;99.90;;;;;;6096623;23;20426;-86
2022/05/03 01:13:34;;;;;;;17.20;15.80;;;13.60;99.90;;;;;;6097089;23;20441;-87
2022/05/03 01:16:04;;;;;;;18.40;16.60;;;13.50;99.90;;;;;;6098471;23;20442;-86
2022/05/03 01:18:40;;;;;;;17.63;16.00;;;13.60;99.90;;;;;;6098536;23;20894;-87
2022/05/03 01:21:13;;;;;;;19.83;17.63;;;13.50;99.90;;;;;;6098632;23;20437;-87
2022/05/03 01:23:55;;;;;;;17.80;16.30;;;13.50;99.90;;;;;;6099002;23;20795;-87
2022/05/03 01:27:02;;;;;;;17.53;15.83;;;13.40;99.90;;;;;;6098348;23;20398;-86
2022/05/03 01:29:31;;;;;;;16.83;15.23;;;13.30;99.90;;;;;;6123342;23;20374;-86
2022/05/03 01:32:00;;;;;;;16.27;14.87;;;13.30;99.90;;;;;;6106283;23;20456;-87
2022/05/03 01:34:28;;;;;;;15.60;14.20;;;13.30;99.90;;;;;;6102155;23;20468;-86
2022/05/03 01:37:14;;;;;;;15.83;14.57;;;13.20;99.90;;;;;;6119776;23;20408;-87
2022/05/03 01:39:59;;;;;;;16.40;14.60;;;13.10;99.90;;;;;;6123407;23;20384;-86
2022/05/03 01:42:32;;;;;;;16.87;15.30;;;13.10;99.90;;;;;;6120977;23;20388;-87
2022/05/03 01:45:05;;;;;;;16.63;15.20;;;13.00;99.90;;;;;;6120527;23;20460;-87
2022/05/03 01:47:44;;;;;;;16.73;15.13;;;12.90;99.90;;;;;;6121839;23;20419;-86
2022/05/03 01:50:18;;;;;;;16.80;15.37;;;12.90;99.90;;;;;;6111447;23;20532;-86
2022/05/03 01:53:05;;;;;;;15.97;14.37;;;12.90;99.90;;;;;;6104015;23;20449;-86
2022/05/03 01:56:05;;;;;;;17.37;15.87;;;12.90;99.90;;;;;;6100175;23;20403;-86
2022/05/03 01:58:43;;;;;;;17.53;15.83;;;12.80;99.90;;;;;;6090758;23;20757;-86
2022/05/03 02:01:18;;;;;;;17.00;15.50;;;12.80;99.90;;;;;;6098364;23;20937;-86
2022/05/03 02:03:49;;;;;;;16.03;14.63;;;12.80;99.90;;;;;;6097735;23;20389;-87
2022/05/03 02:06:19;;;;;;;16.80;15.30;;;12.80;99.90;;;;;;6097739;23;20378;-87
2022/05/03 02:08:55;;;;;;;16.30;14.80;;;12.70;99.90;;;;;;6098010;23;20387;-86
2022/05/03 02:11:38;;;;;;;17.37;15.77;;;12.60;99.90;;;;;;6115057;23;20488;-86
2022/05/03 02:17:06;;;;;;;16.20;14.80;;;12.40;99.90;;;;;;6108262;23;20445;-88
2022/05/03 02:19:57;;;;;;;14.47;13.20;;;12.40;99.90;;;;;;6123403;23;20399;-87
2022/05/03 02:22:42;;;;;;;16.40;14.93;;;12.50;99.90;;;;;;6101197;23;20416;-87
2022/05/03 02:25:15;;;;;;;16.07;14.43;;;12.50;99.90;;;;;;6098398;23;20397;-87
2022/05/03 02:27:47;;;;;;;16.00;14.60;;;12.40;99.90;;;;;;6098527;23;20389;-87
2022/05/03 02:30:15;;;;;;;16.40;14.70;;;12.40;99.90;;;;;;6098349;23;20431;-87
2022/05/03 02:32:55;;;;;;;16.80;15.30;;;12.30;99.90;;;;;;6097801;23;20468;-87
2022/05/03 02:35:23;;;;;;;17.00;15.50;;;12.30;99.90;;;;;;6100833;23;20389;-87
2022/05/03 02:37:56;;;;;;;16.90;15.50;;;12.30;99.90;;;;;;6102599;23;20483;-87
2022/05/03 02:40:27;;;;;;;14.90;13.60;;;12.20;99.90;;;;;;6101460;23;20463;-87
2022/05/03 02:42:55;;;;;;;15.70;14.40;;;12.10;99.90;;;;;;6107482;23;20386;-87
2022/05/03 02:45:22;;;;;;;18.17;16.67;;;12.10;99.90;;;;;;6123507;23;20417;-87
2022/05/03 02:47:58;;;;;;;17.90;16.30;;;12.00;99.90;;;;;;6100486;23;20404;-87
2022/05/03 02:50:30;;;;;;;16.40;14.90;;;12.00;99.90;;;;;;6098613;23;20436;-87
2022/05/03 02:53:02;;;;;;;19.57;17.67;;;12.00;99.90;;;;;;6097626;23;20939;-87
2022/05/03 02:55:40;;;;;;;18.30;16.80;;;11.80;99.90;;;;;;6098462;23;20405;-87
2022/05/03 02:58:15;;;;;;;17.93;16.37;;;11.70;99.90;;;;;;6098140;23;20931;-87
2022/05/03 03:03:52;;;;;;;16.50;15.10;;;11.70;99.90;;;;;;6124932;23;20386;-87
2022/05/03 03:06:23;;;;;;;18.40;16.60;;;11.80;99.90;;;;;;6110370;23;20448;-87
2022/05/03 03:08:52;;;;;;;17.80;16.10;;;11.60;99.90;;;;;;6104051;23;20424;-87
2022/05/03 03:11:30;;;;;;;16.07;14.73;;;11.50;99.90;;;;;;6099642;23;20996;-87
2022/05/03 03:14:20;;;;;;;19.00;16.03;;;11.50;99.90;;;;;;6097455;23;20430;-87
2022/05/03 03:16:54;;;;;;;21.00;19.10;;;11.50;99.90;;;;;;6102886;23;20489;-87
2022/05/03 03:19:52;;;;;;;21.93;19.83;;;11.50;99.90;;;;;;6120118;23;20448;-87
2022/05/03 03:22:21;;;;;;;23.70;21.40;;;11.50;99.90;;;;;;6121564;23;20430;-87
2022/05/03 03:24:50;;;;;;;21.33;19.33;;;11.50;99.90;;;;;;6115144;23;20412;-87
2022/05/03 03:27:21;;;;;;;24.77;22.43;;;11.50;99.90;;;;;;6119997;23;20440;-87
2022/05/03 03:29:49;;;;;;;25.33;22.90;;;11.50;99.90;;;;;;6122390;23;20425;-87
2022/05/03 03:32:18;;;;;;;25.20;22.80;;;11.50;99.90;;;;;;6120376;23;20388;-87
2022/05/03 03:34:50;;;;;;;24.10;21.70;;;11.50;99.90;;;;;;6120181;23;20411;-87
2022/05/03 03:37:19;;;;;;;24.30;22.10;;;11.50;99.90;;;;;;6114833;23;20374;-86
2022/05/03 03:39:45;;;;;;;24.93;22.53;;;11.50;99.90;;;;;;6124412;23;20464;-87
2022/05/03 03:42:12;;;;;;;25.30;22.43;;;11.40;99.90;;;;;;6123440;23;20405;-87
2022/05/03 03:44:39;;;;;;;25.20;22.63;;;11.40;99.90;;;;;;6124052;23;20439;-86
2022/05/03 03:47:05;;;;;;;26.33;22.63;;;11.40;99.90;;;;;;6123333;23;20389;-86
2022/05/03 03:49:34;;;;;;;24.77;22.37;;;11.50;99.90;;;;;;6105125;23;20407;-87
2022/05/03 03:52:03;;;;;;;23.87;21.50;;;11.40;99.90;;;;;;6101235;23;20440;-87
2022/05/03 03:54:31;;;;;;;23.73;21.43;;;11.50;99.90;;;;;;6117964;23;20439;-87
2022/05/03 03:56:58;;;;;;;25.40;22.90;;;11.40;99.90;;;;;;6123319;23;20392;-86
2022/05/03 03:59:30;;;;;;;24.67;21.93;;;11.30;99.90;;;;;;6124716;23;20471;-86
2022/05/03 04:01:58;;;;;;;22.50;20.20;;;11.30;99.90;;;;;;6121155;23;20433;-87
2022/05/03 04:04:30;;;;;;;24.00;21.80;;;11.30;99.90;;;;;;6116931;23;20472;-86
2022/05/03 04:06:56;;;;;;;24.07;21.57;;;11.30;99.90;;;;;;6116234;23;20391;-87
2022/05/03 04:09:24;;;;;;;22.43;20.10;;;11.30;99.90;;;;;;6100177;23;20924;-86
2022/05/03 04:11:51;;;;;;;22.77;20.67;;;11.30;99.90;;;;;;6101791;23;20429;-86
2022/05/03 04:14:18;;;;;;;24.83;22.17;;;11.20;99.90;;;;;;6100922;23;20452;-87
2022/05/03 04:16:45;;;;;;;24.30;21.80;;;11.20;99.90;;;;;;6098766;23;20416;-86
2022/05/03 04:19:13;;;;;;;22.47;20.20;;;11.20;99.90;;;;;;6099200;23;20480;-87
2022/05/03 04:21:41;;;;;;;23.33;21.07;;;11.30;99.90;;;;;;6102129;23;20435;-87
2022/05/03 04:24:08;;;;;;;24.00;21.40;;;11.30;99.90;;;;;;6098773;23;20427;-87
2022/05/03 04:26:36;;;;;;;22.07;20.13;;;11.20;99.90;;;;;;6098599;23;20435;-86
2022/05/03 04:29:04;;;;;;;27.07;24.23;;;11.30;99.90;;;;;;6098273;23;20424;-86
2022/05/03 04:31:32;;;;;;;23.90;21.50;;;11.30;99.90;;;;;;6097734;23;20489;-87
2022/05/03 04:34:00;;;;;;;28.10;22.87;;;11.30;99.90;;;;;;6116776;23;20506;-86
2022/05/03 04:36:29;;;;;;;32.17;21.60;;;11.40;99.90;;;;;;6106660;23;20460;-86
2022/05/03 04:38:56;;;;;;;25.50;21.63;;;11.30;99.90;;;;;;6097055;23;20500;-86
2022/05/03 04:41:23;;;;;;;24.43;21.93;;;11.30;99.90;;;;;;6117912;23;20456;-82
2022/05/03 04:43:51;;;;;;;24.07;21.73;;;11.30;99.90;;;;;;6132056;23;20406;-83
2022/05/03 04:46:18;;;;;;;23.77;21.43;;;11.30;99.90;;;;;;6152625;23;20410;-84
2022/05/03 04:48:45;;;;;;;26.33;21.90;;;11.40;99.90;;;;;;6150637;23;20399;-82
2022/05/03 04:51:17;;;;;;;23.70;20.40;;;11.50;99.90;;;;;;6133347;23;20443;-82
2022/05/03 04:53:44;;;;;;;23.77;21.07;;;11.60;99.90;;;;;;6100847;23;20429;-80
2022/05/03 04:56:17;;;;;;;23.40;20.93;;;11.80;99.90;;;;;;6098339;23;20408;-80
2022/05/03 04:58:44;;;;;;;27.37;20.33;;;12.10;99.90;;;;;;6098533;23;20727;-80
2022/05/03 05:01:12;;;;;;;22.80;20.70;;;12.30;99.90;;;;;;6099451;23;20779;-81
2022/05/03 05:03:38;;;;;;;22.43;20.17;;;12.60;99.90;;;;;;6100558;23;20409;-80
2022/05/03 05:06:05;;;;;;;23.97;21.73;;;12.90;99.90;;;;;;6099415;23;20409;-82
2022/05/03 05:08:32;;;;;;;20.80;18.90;;;13.10;99.90;;;;;;6103612;23;20408;-83
2022/05/03 05:10:58;;;;;;;22.57;20.47;;;13.20;99.90;;;;;;6102997;23;20425;-81
2022/05/03 05:13:25;;;;;;;21.43;17.87;;;13.20;99.90;;;;;;6109941;23;20519;-81
2022/05/03 05:15:52;;;;;;;21.70;19.53;;;13.20;99.90;;;;;;6105556;23;20411;-81
2022/05/03 05:18:21;;;;;;;26.07;19.23;;;13.40;99.90;;;;;;6101490;23;20410;-81
2022/05/03 05:20:48;;;;;;;24.20;21.80;;;13.60;99.90;;;;;;6095988;23;20456;-80
2022/05/03 05:23:15;;;;;;;22.30;20.10;;;13.80;99.90;;;;;;6096508;23;20440;-80
2022/05/03 05:25:41;;;;;;;21.40;19.40;;;13.90;99.90;;;;;;6095559;23;20419;-81
2022/05/03 05:28:08;;;;;;;21.40;19.40;;;14.10;99.90;;;;;;6094879;23;20891;-80
2022/05/03 05:30:35;;;;;;;22.27;20.27;;;14.30;99.90;;;;;;6096814;23;20492;-81
2022/05/03 05:33:02;;;;;;;19.90;18.20;;;14.40;99.90;;;;;;6096390;23;20420;-81
2022/05/03 05:35:30;;;;;;;22.20;20.00;;;14.40;99.90;;;;;;6098716;23;20392;-80
2022/05/03 05:37:56;;;;;;;21.53;19.43;;;14.70;99.90;;;;;;6099059;23;20409;-80
2022/05/03 05:40:23;;;;;;;21.57;19.50;;;14.70;99.90;;;;;;6101517;23;20411;-82
2022/05/03 05:42:50;;;;;;;21.53;19.33;;;15.20;99.90;;;;;;6100378;23;20409;-81
2022/05/03 05:45:17;;;;;;;20.20;18.37;;;15.50;99.90;;;;;;6098265;23;20408;-81
2022/05/03 05:47:44;;;;;;;21.87;19.83;;;15.90;99.90;;;;;;6097443;23;20755;-81
2022/05/03 05:50:11;;;;;;;22.17;19.90;;;16.50;99.50;;;;;;6094376;23;20407;-81
2022/05/03 05:55:24;;;;;;;21.27;19.27;;;17.10;96.90;;;;;;6097207;23;20463;-82
2022/05/03 05:57:51;;;;;;;19.13;17.47;;;17.60;96.00;;;;;;6097398;23;20412;-81
2022/05/03 06:00:18;;;;;;;21.07;19.03;;;18.10;95.20;;;;;;6098332;23;20465;-81
2022/05/03 06:02:45;;;;;;;20.67;18.87;;;18.30;93.60;;;;;;6099228;23;20436;-81
2022/05/03 06:05:12;;;;;;;20.17;18.47;;;18.30;93.00;;;;;;6099305;23;20400;-81
2022/05/03 06:07:40;;;;;;;20.10;18.30;;;18.60;92.80;;;;;;6099565;23;20417;-81
2022/05/03 06:10:08;;;;;;;21.90;19.70;;;18.40;91.90;;;;;;6099622;23;20876;-81
2022/05/03 06:12:35;;;;;;;19.20;17.43;;;18.70;92.20;;;;;;6098991;23;20417;-80
2022/05/03 06:15:01;;;;;;;20.33;18.57;;;18.70;92.20;;;;;;6102145;23;20493;-81
2022/05/03 06:17:28;;;;;;;18.73;17.33;;;19.10;91.30;;;;;;6106146;23;20792;-82
2022/05/03 06:19:55;;;;;;;18.90;17.17;;;19.30;90.30;;;;;;6100468;23;20414;-81
2022/05/03 06:22:21;;;;;;;19.27;17.57;;;19.50;90.10;;;;;;6098559;23;20433;-82
2022/05/03 06:24:53;;;;;;;19.10;17.50;;;20.10;88.40;;;;;;6098998;23;20476;-82
2022/05/03 06:27:19;;;;;;;19.03;17.33;;;20.70;86.30;;;;;;6099047;23;20459;-82
2022/05/03 06:29:46;;;;;;;20.93;18.87;;;21.00;83.90;;;;;;6098527;23;20410;-82
2022/05/03 06:32:13;;;;;;;21.10;19.00;;;21.30;82.80;;;;;;6098250;23;20445;-79
2022/05/03 06:34:40;;;;;;;18.93;17.53;;;21.50;81.10;;;;;;6098284;23;20515;-81
2022/05/03 06:37:06;;;;;;;20.93;19.00;;;21.30;78.20;;;;;;6098019;23;20409;-80
2022/05/03 06:39:36;;;;;;;19.70;17.93;;;21.50;78.10;;;;;;6098800;23;20944;-80
2022/05/03 06:42:06;;;;;;;19.57;17.87;;;21.60;79.10;;;;;;6098764;23;20484;-80
2022/05/03 06:44:33;;;;;;;18.77;17.27;;;21.50;77.10;;;;;;6105715;23;20951;-79
2022/05/03 06:47:00;;;;;;;17.90;16.33;;;21.20;77.50;;;;;;6100779;23;20406;-80
2022/05/03 06:49:27;;;;;;;18.60;16.67;;;21.40;78.40;;;;;;6098664;23;20448;-80
2022/05/03 06:51:53;;;;;;;18.77;17.07;;;21.60;77.20;;;;;;6099673;23;20435;-79
2022/05/03 06:54:20;;;;;;;17.40;15.80;;;22.10;75.80;;;;;;6098708;23;20450;-80
2022/05/03 06:56:47;;;;;;;19.53;17.73;;;22.40;75.30;;;;;;6107405;23;20431;-79
2022/05/03 06:59:15;;;;;;;20.23;18.50;;;22.40;73.30;;;;;;6108497;23;20466;-78
2022/05/03 07:01:41;;;;;;;20.40;18.70;;;22.70;74.00;;;;;;6108610;23;20427;-79
2022/05/03 07:04:08;;;;;;;18.10;16.60;;;22.60;72.30;;;;;;6108811;23;20909;-79
2022/05/03 07:06:35;;;;;;;18.97;17.57;;;23.00;72.50;;;;;;6100853;23;20411;-80
2022/05/03 07:09:01;;;;;;;16.00;14.73;;;23.70;70.70;;;;;;6099018;23;20895;-80
2022/05/03 07:11:28;;;;;;;20.60;18.50;;;23.90;69.00;;;;;;6099120;23;20431;-81
2022/05/03 07:13:55;;;;;;;18.20;16.80;;;24.30;67.90;;;;;;6099116;23;20956;-81
2022/05/03 07:16:23;;;;;;;20.90;19.10;;;24.30;67.50;;;;;;6098943;23;20408;-81
2022/05/03 07:24:18;;;;;;;14.80;13.70;;;24.80;64.70;;;;;;6097940;23;20453;-81
2022/05/03 07:26:44;;;;;;;15.37;14.17;;;25.20;62.90;;;;;;6097304;23;20397;-79
2022/05/03 07:29:11;;;;;;;14.97;13.87;;;25.50;61.20;;;;;;6097805;23;20384;-81
2022/05/03 07:31:41;;;;;;;15.47;14.27;;;25.00;63.50;;;;;;6097589;23;20435;-81
2022/05/03 07:34:08;;;;;;;15.80;14.70;;;25.50;62.50;;;;;;6098322;23;20441;-81
2022/05/03 07:36:35;;;;;;;15.00;13.90;;;25.90;61.10;;;;;;6098019;23;20412;-80
2022/05/03 07:39:02;;;;;;;16.70;15.20;;;25.50;60.40;;;;;;6097737;23;20720;-81
2022/05/03 07:41:28;;;;;;;15.43;14.10;;;25.60;61.50;;;;;;6100165;23;20766;-82
2022/05/03 07:43:55;;;;;;;14.37;13.27;;;26.10;61.10;;;;;;6098243;23;20404;-81
2022/05/03 07:46:22;;;;;;;15.10;13.97;;;26.70;60.20;;;;;;6097818;23;20398;-81
2022/05/03 07:48:50;;;;;;;14.50;13.30;;;26.60;59.30;;;;;;6101405;23;20400;-79
2022/05/03 07:51:19;;;;;;;16.63;15.30;;;26.90;58.50;;;;;;6099660;23;20822;-80
2022/05/03 07:53:46;;;;;;;23.50;21.63;;;26.90;57.40;;;;;;6097692;23;20397;-81
2022/05/03 07:56:12;;;;;;;14.40;13.40;;;27.20;56.60;;;;;;6098058;23;20412;-82
2022/05/03 07:58:39;;;;;;;16.30;14.90;;;27.90;55.80;;;;;;6105004;23;20479;-80
2022/05/03 08:01:06;;;;;;;15.83;14.63;;;26.10;55.80;;;;;;6105789;23;20440;-80
2022/05/03 08:03:33;;;;;;;16.10;14.47;;;25.30;59.30;;;;;;6107696;23;20405;-81
2022/05/03 08:06:02;;;;;;;15.70;14.50;;;25.40;60.80;;;;;;6106807;23;20415;-81
2022/05/03 08:08:29;;;;;;;14.60;13.40;;;26.50;58.30;;;;;;6106279;23;20726;-82
2022/05/03 08:10:56;;;;;;;15.17;14.03;;;28.00;55.80;;;;;;6101416;23;20425;-80
2022/05/03 08:13:23;;;;;;;15.67;14.17;;;28.60;54.60;;;;;;6099087;23;20408;-80
2022/05/03 08:15:49;;;;;;;15.57;14.43;;;28.60;52.60;;;;;;6098363;23;20449;-80
2022/05/03 08:18:16;;;;;;;13.97;12.67;;;27.80;53.80;;;;;;6099984;23;20415;-79
2022/05/03 08:20:43;;;;;;;13.90;12.80;;;28.60;53.40;;;;;;6103407;23;20424;-80
2022/05/03 08:23:11;;;;;;;14.70;13.40;;;29.30;51.90;;;;;;6099401;23;20409;-83
2022/05/03 08:25:38;;;;;;;15.67;13.87;;;30.10;51.20;;;;;;6108050;23;20415;-79
2022/05/03 08:28:05;;;;;;;12.60;11.70;;;30.90;50.00;;;;;;6101911;23;20405;-82
2022/05/03 08:30:32;;;;;;;11.87;10.97;;;31.20;48.10;;;;;;6119546;23;20465;-81
2022/05/03 08:32:59;;;;;;;11.50;10.70;;;31.00;47.90;;;;;;6119607;23;20404;-82
2022/05/03 08:35:26;;;;;;;10.30;9.57;;;30.40;48.30;;;;;;6117738;23;20436;-80
2022/05/03 08:43:23;;;;;;;10.13;9.43;;;32.10;45.30;;;;;;6098982;23;20775;-79
2022/05/03 08:45:51;;;;;;;10.33;9.50;;;30.70;47.00;;;;;;6100087;23;20399;-80
2022/05/03 08:48:24;;;;;;;12.40;11.23;;;31.50;46.30;;;;;;6099830;23;20409;-81
2022/05/03 08:50:51;;;;;;;12.13;11.00;;;32.50;45.90;;;;;;6100241;23;20437;-81
2022/05/03 08:53:20;;;;;;;11.30;10.57;;;32.80;44.80;;;;;;6099989;23;20480;-81
2022/05/03 08:55:50;;;;;;;12.30;11.10;;;32.30;44.20;;;;;;6100277;23;20451;-80
2022/05/03 08:58:18;;;;;;;10.63;9.73;;;31.90;45.10;;;;;;6100259;23;20400;-81
2022/05/03 09:00:45;;;;;;;9.80;9.10;;;31.50;45.70;;;;;;6100546;23;20540;-80
2022/05/03 09:03:12;;;;;;;10.53;9.63;;;32.70;44.60;;;;;;6099243;23;20427;-80
2022/05/03 09:05:40;;;;;;;9.13;8.43;;;32.70;43.50;;;;;;6099352;23;20401;-80
2022/05/03 09:08:10;;;;;;;8.80;8.17;;;31.20;43.70;;;;;;6097844;23;20843;-81
2022/05/03 09:10:38;;;;;;;9.67;8.93;;;30.10;45.30;;;;;;6098042;23;20436;-80
2022/05/03 09:13:18;;;;;;;8.60;7.80;;;28.90;46.40;;;;;;6097782;23;20413;-80
2022/05/03 09:15:45;;;;;;;11.17;10.07;;;27.70;49.40;;;;;;6098044;23;20440;-80
2022/05/03 09:18:24;;;;;;;8.50;7.80;;;27.30;49.40;;;;;;6097603;23;20408;-80
2022/05/03 09:23:48;;;;;;;11.20;10.40;;;27.40;50.40;;;;;;6098575;23;20373;-80
2022/05/03 09:26:17;;;;;;;10.90;9.90;;;27.60;50.00;;;;;;6097646;23;20393;-80
2022/05/03 09:28:49;;;;;;;10.23;9.53;;;28.00;48.80;;;;;;6093929;23;20412;-81
2022/05/03 09:31:28;;;;;;;12.03;8.20;;;28.20;48.90;;;;;;6096920;23;20924;-81
2022/05/03 09:33:55;;;;;;;8.60;7.87;;;28.50;48.40;;;;;;6099308;23;20397;-81
2022/05/03 09:36:22;;;;;;;8.20;7.60;;;28.40;47.70;;;;;;6098511;23;20454;-81
2022/05/03 09:38:50;;;;;;;8.10;7.40;;;28.20;48.30;;;;;;6099699;23;20751;-81
2022/05/03 09:41:18;;;;;;;7.93;7.30;;;28.50;48.30;;;;;;6099275;23;20776;-80
2022/05/03 09:44:06;;;;;;;9.27;8.57;;;28.10;48.30;;;;;;6100148;23;20919;-80
2022/05/03 09:46:51;;;;;;;8.30;7.70;;;27.30;50.40;;;;;;6098982;23;20393;-81
2022/05/03 09:49:20;;;;;;;10.53;8.63;;;27.10;50.40;;;;;;6098938;23;20388;-80
2022/05/03 09:51:48;;;;;;;8.33;7.37;;;26.00;52.30;;;;;;6099171;23;20959;-81
2022/05/03 09:54:16;;;;;;;11.80;8.83;;;26.10;52.80;;;;;;6100055;23;20438;-81
2022/05/03 09:56:47;;;;;;;8.80;6.87;;;27.00;51.00;;;;;;6103346;23;20420;-79
2022/05/03 09:59:16;;;;;;;7.83;7.23;;;26.60;51.30;;;;;;6110410;23;20807;-81
2022/05/03 10:01:43;;;;;;;6.90;6.40;;;27.10;49.60;;;;;;6108775;23;20428;-81
2022/05/03 10:04:10;;;;;;;7.53;6.97;;;28.40;48.50;;;;;;6099999;23;20412;-81
2022/05/03 10:06:37;;;;;;;11.07;10.17;;;29.40;46.90;;;;;;6099358;23;20427;-80
2022/05/03 10:09:04;;;;;;;17.00;15.60;;;30.00;46.20;;;;;;6099050;23;20439;-81
2022/05/03 10:11:34;;;;;;;11.07;10.00;;;31.70;45.50;;;;;;6098994;23;20436;-81
2022/05/03 10:14:00;;;;;;;5.90;5.53;;;32.50;42.70;;;;;;6099345;23;20412;-81
2022/05/03 10:22:05;;;;;;;5.77;5.27;;;32.10;42.10;;;;;;6102315;23;20423;-80
2022/05/03 10:24:33;;;;;;;6.30;5.73;;;33.20;41.30;;;;;;6106577;23;20404;-80
2022/05/03 10:27:06;;;;;;;5.90;5.50;;;32.50;41.60;;;;;;6102656;23;20495;-81
2022/05/03 10:29:35;;;;;;;5.70;5.23;;;32.70;41.70;;;;;;6102002;23;20425;-81
2022/05/03 10:32:14;;;;;;;6.00;5.53;;;34.00;40.40;;;;;;6100240;23;20543;-81
2022/05/03 10:34:56;;;;;;;5.43;5.03;;;33.70;38.70;;;;;;6099542;23;20963;-80
2022/05/03 10:38:03;;;;;;;4.87;4.47;;;33.00;40.40;;;;;;6099819;23;20945;-81
2022/05/03 10:40:31;;;;;;;5.07;4.77;;;34.30;39.20;;;;;;6099098;23;20396;-81
2022/05/03 10:43:06;;;;;;;5.07;4.67;;;34.60;37.40;;;;;;6121769;23;20462;-84
2022/05/03 10:45:48;;;;;;;5.40;5.10;;;34.10;37.50;;;;;;6133992;23;20423;-85
2022/05/03 10:48:25;;;;;;;4.70;4.40;;;34.70;37.40;;;;;;6139986;23;20394;-83
2022/05/03 10:50:53;;;;;;;5.53;5.13;;;35.50;35.90;;;;;;6134025;23;20698;-84
2022/05/03 10:53:24;;;;;;;4.50;4.10;;;36.40;34.20;;;;;;6116619;23;20468;-85
2022/05/03 10:56:19;;;;;;;4.37;4.07;;;37.70;33.80;;;;;;6115449;23;20460;-85
2022/05/03 10:59:12;;;;;;;4.13;3.80;;;38.20;32.70;;;;;;6115001;23;20457;-86
2022/05/03 11:02:10;;;;;;;4.43;4.07;;;38.90;31.80;;;;;;6110316;23;20455;-85
2022/05/03 11:05:13;;;;;;;4.93;4.53;;;38.70;31.50;;;;;;6112863;23;20405;-84
2022/05/03 11:07:41;;;;;;;4.30;4.00;;;37.90;32.00;;;;;;6110351;23;20401;-83
2022/05/03 11:10:39;;;;;;;4.70;4.40;;;38.10;31.90;;;;;;6107298;23;20425;-81
2022/05/03 11:13:06;;;;;;;5.10;4.70;;;38.40;31.80;;;;;;6104723;23;20413;-83
2022/05/03 11:15:33;;;;;;;5.57;5.07;;;38.50;31.10;;;;;;6104275;23;20444;-83
2022/05/03 11:18:01;;;;;;;5.57;5.17;;;37.90;32.20;;;;;;6104776;23;20408;-84
2022/05/03 11:20:27;;;;;;;5.83;5.43;;;38.30;31.40;;;;;;6104666;23;20397;-84
2022/05/03 11:22:56;;;;;;;5.03;4.73;;;38.70;31.30;;;;;;6107007;23;20753;-86
2022/05/03 11:25:24;;;;;;;6.10;5.50;;;39.20;31.20;;;;;;6107735;23;20408;-86
2022/05/03 11:27:52;;;;;;;6.10;5.70;;;39.10;31.30;;;;;;6108188;23;20419;-85
2022/05/03 11:30:19;;;;;;;5.90;5.50;;;38.90;31.10;;;;;;6109882;23;20399;-84
2022/05/03 11:32:46;;;;;;;6.13;5.73;;;39.10;30.50;;;;;;6110214;23;20421;-85
2022/05/03 11:35:15;;;;;;;5.63;5.30;;;38.50;31.10;;;;;;6107210;23;20409;-86
2022/05/03 11:37:47;;;;;;;6.33;5.83;;;38.80;30.50;;;;;;6112420;23;20411;-84
2022/05/03 11:40:16;;;;;;;5.80;5.30;;;39.90;30.50;;;;;;6110995;23;20475;-87
2022/05/03 11:42:45;;;;;;;6.87;6.30;;;40.50;29.50;;;;;;6114726;23;20442;-85
2022/05/03 11:45:13;;;;;;;6.67;6.20;;;40.50;29.30;;;;;;6110499;23;20468;-85
2022/05/03 11:47:42;;;;;;;6.03;5.63;;;39.10;29.10;;;;;;6108246;23;20413;-84
2022/05/03 11:50:12;;;;;;;6.13;5.53;;;38.90;29.90;;;;;;6110620;23;20427;-85
2022/05/03 11:58:11;;;;;;;5.70;5.30;;;35.50;32.10;;;;;;6115543;23;20380;-82
2022/05/03 12:00:49;;;;;;;8.97;8.17;;;33.70;33.90;;;;;;6121687;23;20401;-84
2022/05/03 12:03:17;;;;;;;5.80;5.40;;;32.70;35.50;;;;;;6109217;23;20392;-83
2022/05/03 12:06:02;;;;;;;5.93;5.43;;;31.40;37.60;;;;;;6120247;23;20512;-85
2022/05/03 12:08:30;;;;;;;6.77;6.10;;;30.60;39.70;;;;;;6109016;23;20472;-83
2022/05/03 12:10:58;;;;;;;7.13;5.40;;;29.90;40.80;;;;;;6105041;23;20500;-83
2022/05/03 12:13:30;;;;;;;5.60;5.10;;;29.40;41.60;;;;;;6101917;23;20413;-83
2022/05/03 12:16:11;;;;;;;5.63;5.13;;;29.30;42.10;;;;;;6102062;23;20392;-84
2022/05/03 12:18:40;;;;;;;7.50;6.90;;;29.00;42.80;;;;;;6102644;23;20876;-85
2022/05/03 12:21:10;;;;;;;6.43;5.93;;;29.40;42.20;;;;;;6103140;23;20397;-85
2022/05/03 12:23:47;;;;;;;7.03;6.40;;;28.20;43.60;;;;;;6101914;23;20425;-84
2022/05/03 12:26:18;;;;;;;5.77;5.37;;;27.10;45.30;;;;;;6101042;23;20488;-84
2022/05/03 12:28:47;;;;;;;7.00;6.40;;;25.70;47.80;;;;;;6102138;23;21072;-84
2022/05/03 12:31:16;;;;;;;6.63;6.03;;;24.90;48.70;;;;;;6102173;23;20765;-84
2022/05/03 12:33:44;;;;;;;5.60;5.10;;;24.70;49.90;;;;;;6101825;23;20715;-85
2022/05/03 12:36:11;;;;;;;5.70;5.10;;;24.80;50.20;;;;;;6102153;23;20417;-84
2022/05/03 12:38:48;;;;;;;4.60;4.20;;;24.40;50.50;;;;;;6110310;23;20418;-84
2022/05/03 12:41:24;;;;;;;7.03;5.43;;;24.20;51.40;;;;;;6106843;23;20440;-84
2022/05/03 12:44:01;;;;;;;6.13;5.47;;;24.30;51.80;;;;;;6106088;23;20430;-84
2022/05/03 12:46:29;;;;;;;7.47;4.73;;;24.30;51.60;;;;;;6103839;23;20425;-85
2022/05/03 12:48:56;;;;;;;5.50;4.93;;;24.20;51.30;;;;;;6103522;23;20445;-84
2022/05/03 12:51:24;;;;;;;5.73;5.33;;;23.80;51.20;;;;;;6109943;23;20433;-86
2022/05/03 12:53:51;;;;;;;6.50;5.80;;;23.40;51.30;;;;;;6110861;23;20450;-84
2022/05/03 12:59:04;;;;;;;5.50;5.00;;;22.80;53.00;;;;;;6102886;23;20885;-85
2022/05/03 13:01:32;;;;;;;7.60;6.80;;;22.60;53.90;;;;;;6105779;23;20766;-84
2022/05/03 13:03:59;;;;;;;10.93;6.90;;;22.30;57.10;;;;;;6101919;23;20410;-85
2022/05/03 13:06:25;;;;;;;7.83;6.43;;;21.40;60.40;;;;;;6102153;23;20451;-84
2022/05/03 13:08:53;;;;;;;12.37;7.70;;;20.70;64.00;;;;;;6101378;23;20392;-85
2022/05/03 13:11:20;;;;;;;9.13;8.17;;;20.20;66.70;;;;;;6102366;23;20486;-84
2022/05/03 13:13:47;;;;;;;14.83;8.20;;;19.90;68.70;;;;;;6102586;23;20403;-84
2022/05/03 13:16:15;;;;;;;9.17;8.23;;;19.70;70.10;;;;;;6101247;23;20417;-85
2022/05/03 13:18:44;;;;;;;8.80;8.00;;;19.60;72.20;;;;;;6105476;23;20412;-87
2022/05/03 13:21:10;;;;;;;9.43;8.50;;;19.50;72.80;;;;;;6110274;23;20447;-85
2022/05/03 13:23:37;;;;;;;10.20;8.70;;;19.30;74.50;;;;;;6102322;23;20413;-84
2022/05/03 13:26:04;;;;;;;11.30;8.37;;;19.00;76.00;;;;;;6102541;23;20447;-84